Time;durP1;ratioP1;P1;durP2;ratioP2;P2;SDS_P1;SDS_P2;PMS_P1;PMS_P2;Temp;Humidity;BMP_temperature;BMP_pressure;BME280_temperature;BME280_humidity;BME280_pressure;Samples;Min_cycle;Max_cycle;Signal;HPM_P1;HPM_P2
2023/03/25 00:02:30;;;;;;;9.40;7.60;;;;;;;10.72;79.82;99330.38;106817;1257;1016347;-71
2023/03/25 00:07:23;;;;;;;10.70;7.90;;;;;;;10.68;79.93;99329.02;106742;1259;1015999;-72
2023/03/25 00:12:16;;;;;;;9.60;7.50;;;;;;;10.61;79.90;99326.63;106834;1257;1016963;-71
2023/03/25 00:17:12;;;;;;;10.10;8.40;;;;;;;10.56;79.78;99324.57;106796;1257;1058690;-72
2023/03/25 00:22:05;;;;;;;8.00;7.20;;;;;;;10.52;79.83;99320.61;106833;1257;1018575;-71
2023/03/25 00:26:58;;;;;;;7.00;6.40;;;;;;;10.48;79.88;99312.14;106838;1257;1017201;-71
2023/03/25 00:31:51;;;;;;;9.50;6.90;;;;;;;10.39;79.74;99326.56;106730;1258;1018224;-72
2023/03/25 00:36:44;;;;;;;8.40;6.90;;;;;;;10.27;79.82;99330.91;106773;1258;1016361;-72
2023/03/25 00:41:40;;;;;;;8.40;7.50;;;;;;;10.19;80.08;99322.45;106795;1261;1016561;-72
2023/03/25 00:46:34;;;;;;;8.60;7.60;;;;;;;10.12;80.18;99332.52;106730;1258;1072779;-72
2023/03/25 00:51:30;;;;;;;9.00;6.60;;;;;;;10.06;80.12;99327.68;106828;1261;1016169;-72
2023/03/25 00:56:24;;;;;;;8.20;6.10;;;;;;;10.02;80.18;99323.04;106851;1257;1070924;-71
2023/03/25 01:01:22;;;;;;;8.00;6.80;;;;;;;10.03;80.51;99330.47;106890;1259;1018284;-72
2023/03/25 01:06:20;;;;;;;10.40;6.80;;;;;;;10.04;80.49;99334.98;106909;1257;1058754;-71
2023/03/25 01:11:26;;;;;;;6.70;5.80;;;;;;;10.03;80.38;99332.73;107037;1257;1073211;-72
2023/03/25 01:16:19;;;;;;;8.30;6.10;;;;;;;10.04;80.36;99327.35;106863;1257;1068483;-72
2023/03/25 01:21:12;;;;;;;9.80;6.40;;;;;;;10.04;80.25;99325.96;106839;1257;1016339;-72
2023/03/25 01:26:05;;;;;;;8.10;7.00;;;;;;;9.99;80.20;99325.29;106817;1259;1016275;-72
2023/03/25 01:31:07;;;;;;;7.40;6.60;;;;;;;9.90;79.96;99331.02;106858;1258;1016235;-72
2023/03/25 01:36:00;;;;;;;7.40;6.60;;;;;;;9.81;79.96;99326.72;106801;1257;1072148;-72
2023/03/25 01:40:54;;;;;;;7.30;5.80;;;;;;;9.72;80.16;99313.77;106857;1257;1015992;-72
2023/03/25 01:45:48;;;;;;;6.80;5.70;;;;;;;9.59;79.99;99306.69;106911;1257;1018771;-72
2023/03/25 01:50:52;;;;;;;5.90;5.30;;;;;;;9.45;79.88;99307.92;106873;1257;1016017;-72
2023/03/25 01:55:46;;;;;;;8.50;7.00;;;;;;;9.29;79.97;99313.98;106839;1257;1058083;-71
2023/03/25 02:00:42;;;;;;;6.50;5.90;;;;;;;9.22;80.12;99312.08;106976;1259;1072943;-72
2023/03/25 02:05:46;;;;;;;6.50;5.70;;;;;;;9.12;80.28;99315.54;106852;1257;1065748;-72
2023/03/25 02:10:39;;;;;;;7.70;6.20;;;;;;;9.04;80.36;99324.35;106991;1257;1071094;-72
2023/03/25 02:15:50;;;;;;;5.90;5.20;;;;;;;8.94;80.50;99335.57;106871;1257;1018820;-72
2023/03/25 02:21:07;;;;;;;6.30;5.60;;;;;;;8.83;80.32;99335.89;106875;1259;1058442;-72
2023/03/25 02:26:41;;;;;;;6.80;5.30;;;;;;;8.67;80.12;99331.36;106735;1257;1274178;-72
2023/03/25 02:31:47;;;;;;;7.50;5.90;;;;;;;8.55;80.43;99320.11;106837;1257;1066025;-72
2023/03/25 02:37:02;;;;;;;6.00;4.90;;;;;;;8.44;80.03;99305.56;106877;1258;1070898;-72
2023/03/25 02:42:35;;;;;;;6.90;5.90;;;;;;;8.28;79.88;99302.89;106797;1259;1050817;-72
2023/03/25 02:47:33;;;;;;;9.00;6.30;;;;;;;8.16;79.63;99317.52;106909;1262;1061052;-72
2023/03/25 02:52:37;;;;;;;9.20;6.20;;;;;;;8.08;80.45;99330.95;106890;1257;1072793;-72
2023/03/25 02:57:35;;;;;;;10.00;6.50;;;;;;;8.06;80.75;99326.45;106921;1257;1065596;-72
2023/03/25 03:02:31;;;;;;;8.50;6.30;;;;;;;8.03;80.71;99319.36;106906;1257;1071180;-72
2023/03/25 03:07:32;;;;;;;6.60;5.70;;;;;;;7.99;80.68;99319.00;106771;1257;1051184;-72
2023/03/25 03:12:33;;;;;;;7.30;6.60;;;;;;;7.94;80.41;99314.48;106799;1257;1058282;-72
2023/03/25 03:17:43;;;;;;;9.30;7.00;;;;;;;7.88;80.37;99319.98;106953;1262;1072181;-72
2023/03/25 03:23:25;;;;;;;7.40;6.30;;;;;;;7.82;80.47;99333.40;106905;1257;1064985;-72
2023/03/25 03:28:21;;;;;;;8.20;6.20;;;;;;;7.73;80.64;99338.52;106908;1258;1070240;-71
2023/03/25 03:33:24;;;;;;;6.50;5.40;;;;;;;7.65;80.31;99343.46;106872;1257;1049477;-72
2023/03/25 03:38:21;;;;;;;24.40;6.90;;;;;;;7.54;80.09;99343.56;106962;1257;1058401;-72
2023/03/25 03:43:20;;;;;;;6.90;5.50;;;;;;;7.46;80.22;99341.77;106911;1261;1072275;-72
2023/03/25 03:48:55;;;;;;;5.80;5.20;;;;;;;7.36;80.02;99337.73;106968;1257;1065783;-72
2023/03/25 03:53:59;;;;;;;9.50;6.90;;;;;;;7.25;79.96;99331.27;106858;1257;1071105;-72
2023/03/25 03:58:57;;;;;;;6.00;5.30;;;;;;;7.17;80.40;99326.39;106901;1257;1051568;-73
2023/03/25 04:03:56;;;;;;;7.30;5.80;;;;;;;7.10;80.07;99336.65;106872;1257;1059511;-72
2023/03/25 04:08:58;;;;;;;8.70;7.50;;;;;;;7.03;80.55;99346.92;106864;1261;1073014;-72
2023/03/25 04:13:55;;;;;;;10.70;6.90;;;;;;;6.98;80.90;99353.27;106889;1257;1065638;-72
2023/03/25 04:18:52;;;;;;;7.80;7.10;;;;;;;6.93;80.74;99359.40;106866;1257;1070662;-71
2023/03/25 04:23:45;;;;;;;6.10;4.90;;;;;;;6.85;80.08;99362.09;106852;1257;1053834;-72
2023/03/25 04:28:40;;;;;;;11.10;8.40;;;;;;;6.79;80.26;99363.22;106947;1257;1019036;-72
2023/03/25 04:33:34;;;;;;;6.90;6.20;;;;;;;6.76;80.52;99372.33;106830;1257;1073187;-72
2023/03/25 04:38:28;;;;;;;9.00;7.10;;;;;;;6.71;80.20;99383.98;106894;1258;1016735;-72
2023/03/25 04:43:21;;;;;;;8.50;6.80;;;;;;;6.68;80.10;99386.70;106843;1258;1016481;-72
2023/03/25 04:48:30;;;;;;;10.90;8.50;;;;;;;6.70;80.19;99380.70;106830;1257;1017962;-71
2023/03/25 04:53:23;;;;;;;12.10;9.60;;;;;;;6.78;80.39;99378.72;106896;1257;1058065;-72
2023/03/25 04:58:16;;;;;;;10.00;8.20;;;;;;;6.84;80.33;99365.88;106875;1257;1015849;-72
2023/03/25 05:03:10;;;;;;;9.60;7.90;;;;;;;6.90;80.51;99360.23;106849;1259;1016319;-72
2023/03/25 05:08:03;;;;;;;8.20;7.00;;;;;;;6.97;80.51;99368.58;106885;1257;1016610;-72
2023/03/25 05:13:05;;;;;;;9.90;7.80;;;;;;;7.09;80.63;99372.83;106915;1257;1016360;-72
2023/03/25 05:17:59;;;;;;;10.50;8.60;;;;;;;7.26;80.83;99374.19;106889;1259;1058891;-72
2023/03/25 05:22:56;;;;;;;11.80;9.40;;;;;;;7.43;80.83;99384.34;106854;1257;1016810;-71
2023/03/25 05:27:49;;;;;;;11.30;8.40;;;;;;;7.57;80.89;99384.80;106852;1261;1066220;-72
2023/03/25 05:32:44;;;;;;;12.00;8.60;;;;;;;7.68;80.89;99382.46;106703;1257;1015571;-71
2023/03/25 05:37:37;;;;;;;10.10;8.20;;;;;;;7.79;81.10;99383.58;107077;1257;1052021;-72
2023/03/25 05:42:31;;;;;;;11.90;9.50;;;;;;;7.91;81.10;99386.58;106736;1262;1018213;-71
2023/03/25 05:47:27;;;;;;;9.30;8.00;;;;;;;8.05;81.21;99389.27;106788;1257;1016175;-71
2023/03/25 05:52:23;;;;;;;9.90;8.10;;;;;;;8.20;81.35;99391.94;106871;1258;1063955;-72
2023/03/25 05:57:16;;;;;;;11.90;10.50;;;;;;;8.38;81.37;99392.20;106767;1257;1071125;-71
2023/03/25 06:02:14;;;;;;;13.70;10.00;;;;;;;8.53;81.13;99388.84;106841;1257;1018472;-72
2023/03/25 06:07:12;;;;;;;10.90;9.80;;;;;;;8.62;81.16;99394.74;106924;1257;1058797;-72
2023/03/25 06:12:05;;;;;;;11.50;9.60;;;;;;;8.70;81.36;99391.50;106808;1259;1073418;-72
2023/03/25 06:16:58;;;;;;;13.70;10.50;;;;;;;8.82;81.43;99392.91;106902;1257;1016382;-72
2023/03/25 06:21:51;;;;;;;13.20;10.60;;;;;;;8.95;81.32;99393.80;106787;1257;1016590;-71
2023/03/25 06:26:44;;;;;;;19.30;12.00;;;;;;;9.10;81.30;99396.95;106814;1257;1016465;-71
2023/03/25 06:31:37;;;;;;;14.80;11.50;;;;;;;9.27;81.05;99395.94;106871;1257;1016329;-72
2023/03/25 06:36:30;;;;;;;11.80;10.60;;;;;;;9.45;80.89;99384.89;106778;1257;1016563;-72
2023/03/25 06:41:23;;;;;;;15.70;12.40;;;;;;;9.64;80.58;99386.60;106814;1257;1018103;-72
2023/03/25 06:46:35;;;;;;;13.00;10.80;;;;;;;9.93;80.15;99389.35;106745;1257;1071231;-72
2023/03/25 06:51:40;;;;;;;13.10;10.50;;;;;;;10.28;79.83;99398.30;106812;1257;1051324;-72
2023/03/25 06:56:34;;;;;;;13.30;11.90;;;;;;;10.48;79.23;99404.13;106797;1257;1016275;-72
2023/03/25 07:01:27;;;;;;;12.80;11.50;;;;;;;10.58;79.11;99398.38;106796;1257;1016462;-72
2023/03/25 07:06:24;;;;;;;11.70;10.50;;;;;;;10.67;78.87;99398.86;106761;1259;1016303;-72
2023/03/25 07:11:28;;;;;;;13.00;10.80;;;;;;;10.80;78.77;99407.64;106799;1257;1069839;-72
2023/03/25 07:16:22;;;;;;;11.90;10.20;;;;;;;11.00;78.49;99399.55;106801;1257;1051285;-71
2023/03/25 07:21:16;;;;;;;11.70;9.80;;;;;;;11.23;78.05;99395.95;106818;1257;1016359;-72
2023/03/25 07:26:09;;;;;;;11.90;9.90;;;;;;;11.47;77.33;99393.16;106861;1257;1015951;-72
2023/03/25 07:31:02;;;;;;;14.00;10.60;;;;;;;11.79;76.53;99393.77;106885;1257;1016170;-72
2023/03/25 07:35:54;;;;;;;10.50;9.50;;;;;;;12.57;75.27;99383.39;106813;1257;1016504;-72
2023/03/25 07:40:47;;;;;;;11.40;9.80;;;;;;;12.89;74.74;99381.77;106784;1258;1018125;-72
2023/03/25 07:45:42;;;;;;;11.40;9.70;;;;;;;12.49;75.22;99387.33;106822;1257;1016516;-72
2023/03/25 07:50:36;;;;;;;10.50;9.50;;;;;;;12.47;75.01;99382.30;106818;1257;1016320;-72
2023/03/25 07:55:29;;;;;;;12.40;10.20;;;;;;;12.57;74.91;99378.88;106808;1259;1016554;-72
2023/03/25 08:00:22;;;;;;;13.20;10.40;;;;;;;12.74;74.56;99375.72;106722;1258;1016490;-72
2023/03/25 08:05:20;;;;;;;10.30;9.30;;;;;;;13.38;73.53;99367.49;106806;1258;1016082;-72
2023/03/25 08:10:14;;;;;;;10.50;9.40;;;;;;;13.65;73.26;99362.36;106786;1258;1059442;-72
2023/03/25 08:15:08;;;;;;;11.80;9.80;;;;;;;13.78;72.56;99354.14;106713;1257;1016191;-72
2023/03/25 08:20:03;;;;;;;12.30;9.50;;;;;;;13.85;72.18;99358.89;106767;1258;1065474;-72
2023/03/25 08:24:57;;;;;;;10.10;9.00;;;;;;;14.62;71.14;99360.88;106732;1259;1073427;-72
2023/03/25 08:29:56;;;;;;;12.40;9.00;;;;;;;15.44;70.41;99366.52;106636;1259;1052402;-72
2023/03/25 08:34:49;;;;;;;10.20;9.20;;;;;;;16.34;68.99;99377.28;106775;1258;1058577;-72
2023/03/25 08:39:43;;;;;;;11.80;8.60;;;;;;;17.09;67.39;99373.18;106722;1259;1016490;-72
2023/03/25 08:44:37;;;;;;;10.00;9.00;;;;;;;18.10;65.65;99366.90;106726;1257;1065304;-72
2023/03/25 08:49:31;;;;;;;8.80;7.90;;;;;;;17.89;65.29;99362.39;106724;1262;1016389;-72
2023/03/25 08:54:29;;;;;;;9.70;7.70;;;;;;;17.88;65.16;99371.88;106646;1258;1050854;-72
2023/03/25 08:59:22;;;;;;;9.30;8.40;;;;;;;17.84;64.53;99377.10;106756;1259;1060861;-72
2023/03/25 09:04:17;;;;;;;10.70;7.90;;;;;;;17.69;64.66;99379.69;106744;1258;1016405;-72
2023/03/25 09:09:10;;;;;;;8.10;7.30;;;;;;;17.42;64.58;99375.84;106681;1261;1065554;-72
2023/03/25 09:14:04;;;;;;;8.10;7.10;;;;;;;17.92;62.57;99372.61;106759;1258;1016084;-72
2023/03/25 09:18:57;;;;;;;7.70;6.90;;;;;;;18.10;62.23;99364.79;106599;1258;1016230;-72
2023/03/25 09:23:50;;;;;;;8.70;6.30;;;;;;;17.67;62.23;99361.56;106826;1260;1018290;-71
2023/03/25 09:28:43;;;;;;;6.70;6.10;;;;;;;18.05;62.07;99358.87;106752;1257;1018546;-72
2023/03/25 09:33:37;;;;;;;7.10;6.00;;;;;;;18.56;60.97;99358.59;106761;1261;1015800;-72
2023/03/25 09:38:29;;;;;;;6.40;5.70;;;;;;;18.90;60.09;99352.23;106789;1259;1016421;-72
2023/03/25 09:43:48;;;;;;;7.00;6.10;;;;;;;18.86;60.16;99349.76;106738;1260;1017233;-72
2023/03/25 09:48:44;;;;;;;9.20;5.90;;;;;;;18.27;60.35;99354.74;106724;1257;1059440;-72
2023/03/25 09:53:46;;;;;;;6.70;5.50;;;;;;;17.96;60.60;99348.66;106694;1261;1072623;-72
2023/03/25 09:58:50;;;;;;;8.40;5.20;;;;;;;17.88;60.77;99344.88;106853;1259;1065106;-72
2023/03/25 10:04:05;;;;;;;5.00;4.60;;;;;;;17.58;60.73;99338.70;106858;1259;1070316;-72
2023/03/25 10:09:09;;;;;;;7.70;5.50;;;;;;;17.18;60.80;99330.57;106872;1257;1051014;-73
2023/03/25 10:14:25;;;;;;;7.30;6.30;;;;;;;17.01;61.01;99329.01;106812;1259;1058061;-73
2023/03/25 10:19:30;;;;;;;6.80;5.50;;;;;;;16.64;61.44;99329.39;106807;1257;1072467;-73
2023/03/25 10:24:34;;;;;;;6.10;4.80;;;;;;;16.37;61.99;99327.58;106784;1257;1065092;-73
2023/03/25 10:29:36;;;;;;;5.50;3.80;;;;;;;15.94;61.67;99327.20;106830;1258;1073816;-73
2023/03/25 10:34:45;;;;;;;4.90;3.40;;;;;;;15.43;62.00;99327.96;106841;1261;1051037;-72
2023/03/25 10:39:44;;;;;;;5.90;3.40;;;;;;;15.35;62.06;99316.80;106794;1258;1058646;-73
2023/03/25 10:44:37;;;;;;;6.30;3.70;;;;;;;16.28;61.17;99309.27;106859;1259;1072332;-73
2023/03/25 10:49:32;;;;;;;6.90;4.40;;;;;;;16.40;61.67;99305.98;106825;1257;1016018;-73
2023/03/25 10:54:36;;;;;;;4.70;4.10;;;;;;;16.33;61.74;99305.31;106782;1259;1071066;-73
2023/03/25 10:59:33;;;;;;;9.30;4.90;;;;;;;16.56;61.42;99296.94;106851;1257;1050525;-73
2023/03/25 11:04:34;;;;;;;7.10;5.20;;;;;;;17.13;60.35;99290.06;107054;1258;1058567;-73
2023/03/25 11:09:35;;;;;;;7.50;3.80;;;;;;;17.76;59.44;99282.57;106871;1259;1072845;-73
2023/03/25 11:14:29;;;;;;;5.10;3.30;;;;;;;17.65;59.38;99276.42;106776;1259;1064975;-73
2023/03/25 11:19:27;;;;;;;4.30;3.10;;;;;;;17.44;58.33;99273.83;106790;1259;1016348;-73
2023/03/25 11:24:23;;;;;;;4.70;3.00;;;;;;;17.48;58.01;99263.89;106763;1257;1051328;-72
2023/03/25 11:29:19;;;;;;;5.10;3.30;;;;;;;17.73;56.85;99262.66;106857;1259;1058490;-72
2023/03/25 11:34:12;;;;;;;6.90;3.10;;;;;;;17.34;57.24;99256.66;106829;1259;1072773;-72
2023/03/25 11:39:25;;;;;;;5.50;2.90;;;;;;;16.86;57.01;99252.45;106885;1259;1017671;-72
2023/03/25 11:44:26;;;;;;;5.70;3.00;;;;;;;16.37;57.39;99246.42;106757;1259;1069733;-73
2023/03/25 11:49:22;;;;;;;2.90;2.40;;;;;;;16.17;57.88;99240.02;106915;1259;1050573;-73
2023/03/25 11:54:18;;;;;;;4.80;2.40;;;;;;;16.15;57.55;99234.67;106890;1262;1058587;-72
2023/03/25 11:59:37;;;;;;;5.00;2.60;;;;;;;16.18;57.44;99233.73;106752;1258;1074454;-72
2023/03/25 12:04:31;;;;;;;5.30;3.30;;;;;;;16.58;57.56;99234.41;106783;1258;1065982;-72
2023/03/25 12:09:26;;;;;;;2.70;2.50;;;;;;;17.08;56.96;99235.29;106799;1258;1015878;-72
2023/03/25 12:14:37;;;;;;;4.50;2.70;;;;;;;17.09;56.51;99227.92;106757;1257;1053555;-72
2023/03/25 12:19:48;;;;;;;3.90;3.00;;;;;;;16.91;56.05;99223.42;106792;1260;1060271;-72
2023/03/25 12:24:50;;;;;;;3.50;2.80;;;;;;;16.64;56.36;99218.34;106820;1260;1073822;-72
2023/03/25 12:30:01;;;;;;;4.10;2.70;;;;;;;16.51;57.11;99211.89;106620;1257;1065402;-72
2023/03/25 12:35:24;;;;;;;3.80;2.60;;;;;;;16.35;57.09;99207.69;106644;1259;1070830;-73
2023/03/25 12:40:43;;;;;;;4.90;2.90;;;;;;;16.04;57.39;99198.81;106784;1262;1051408;-72
2023/03/25 12:46:04;;;;;;;4.80;2.80;;;;;;;15.87;57.68;99191.61;106870;1258;1058727;-72
2023/03/25 12:51:33;;;;;;;3.00;2.60;;;;;;;15.57;57.57;99189.98;106717;1262;1073113;-72
2023/03/25 12:56:29;;;;;;;5.10;2.80;;;;;;;15.37;58.40;99184.62;106710;1258;1064999;-72
2023/03/25 13:01:41;;;;;;;5.80;3.50;;;;;;;15.42;58.53;99185.69;106700;1261;1071204;-72
2023/03/25 13:06:39;;;;;;;4.10;3.10;;;;;;;15.67;58.47;99178.38;106707;1259;1051505;-72
2023/03/25 13:11:49;;;;;;;4.10;2.40;;;;;;;16.01;58.06;99173.73;106768;1260;1058987;-73
2023/03/25 13:16:45;;;;;;;5.20;2.30;;;;;;;16.54;56.72;99174.19;106805;1256;1072391;-72
2023/03/25 13:21:41;;;;;;;3.70;1.70;;;;;;;17.03;55.67;99172.80;106723;1260;1068101;-72
2023/03/25 13:26:35;;;;;;;3.70;2.10;;;;;;;17.28;55.28;99169.30;106644;1261;1073612;-72
2023/03/25 13:31:34;;;;;;;1.90;1.70;;;;;;;17.24;54.63;99170.52;107296;1259;1017997;-72
2023/03/25 13:36:41;;;;;;;4.50;2.20;;;;;;;16.72;54.69;99164.18;106609;1259;1058067;-72
2023/03/25 13:41:43;;;;;;;4.60;2.20;;;;;;;16.25;55.44;99165.34;106780;1259;1072931;-73
2023/03/25 13:46:47;;;;;;;2.70;2.00;;;;;;;15.72;56.25;99186.27;106796;1257;1067605;-72
2023/03/25 13:51:40;;;;;;;4.30;2.30;;;;;;;14.99;57.05;99204.61;106742;1257;1070568;-72
2023/03/25 13:57:23;;;;;;;3.50;2.00;;;;;;;14.23;58.88;99203.73;106750;1257;1016323;-72
2023/03/25 14:02:59;;;;;;;5.50;2.70;;;;;;;13.55;60.47;99199.94;106676;1257;1059465;-72
2023/03/25 14:08:19;;;;;;;5.00;2.70;;;;;;;13.32;62.37;99185.39;106638;1262;1074086;-72
2023/03/25 14:13:20;;;;;;;5.00;2.90;;;;;;;13.53;63.53;99180.65;106845;1258;1067794;-73
2023/03/25 14:18:18;;;;;;;3.60;3.10;;;;;;;13.84;63.88;99175.67;106679;1262;1071860;-72
2023/03/25 14:23:19;;;;;;;5.80;3.50;;;;;;;13.94;63.80;99172.33;106691;1259;1052929;-72
2023/03/25 14:28:20;;;;;;;4.80;3.80;;;;;;;14.08;64.12;99185.28;106846;1258;1058110;-72
2023/03/25 14:33:13;;;;;;;5.00;4.10;;;;;;;14.43;64.46;99190.94;106873;1262;1072761;-72
2023/03/25 14:38:06;;;;;;;6.80;3.90;;;;;;;14.48;64.10;99190.47;106850;1257;1016465;-73
2023/03/25 14:43:00;;;;;;;5.90;3.50;;;;;;;14.35;63.84;99186.77;106832;1258;1018889;-72
2023/03/25 14:47:53;;;;;;;6.40;4.40;;;;;;;14.18;64.46;99190.44;106785;1262;1015826;-72
2023/03/25 14:52:57;;;;;;;7.30;4.10;;;;;;;14.07;64.98;99188.42;106737;1263;1016104;-72
2023/03/25 14:57:51;;;;;;;8.20;4.40;;;;;;;14.27;64.90;99182.93;106788;1260;1076363;-72
2023/03/25 15:02:51;;;;;;;5.20;3.80;;;;;;;14.28;64.67;99181.70;106689;1261;1016972;-72
2023/03/25 15:07:53;;;;;;;7.90;4.70;;;;;;;14.23;64.63;99175.00;106869;1261;1071221;-72
2023/03/25 15:12:51;;;;;;;5.90;4.30;;;;;;;14.09;64.74;99179.14;106702;1263;1050883;-72
2023/03/25 15:17:47;;;;;;;5.70;4.10;;;;;;;13.95;65.14;99183.80;106922;1261;1059254;-72
2023/03/25 15:22:41;;;;;;;5.00;3.50;;;;;;;13.79;65.23;99210.42;106923;1261;1071913;-72
2023/03/25 15:28:10;;;;;;;1.90;1.30;;;;;;;13.28;63.53;99242.19;106709;1263;1018078;-72
2023/03/25 15:33:21;;;;;;;1.00;0.90;;;;;;;12.52;62.09;99251.36;106220;1267;1073758;-73
2023/03/25 15:38:33;;;;;;;1.40;1.30;;;;;;;12.01;62.51;99260.73;106292;1270;1054759;-72
2023/03/25 15:43:49;;;;;;;0.80;0.70;;;;;;;11.70;62.87;99264.53;106273;1266;1058600;-72
2023/03/25 15:48:55;;;;;;;0.80;0.80;;;;;;;11.50;63.06;99258.66;106326;1268;1072507;-72
2023/03/25 15:53:54;;;;;;;0.80;0.70;;;;;;;11.33;63.28;99263.15;106270;1267;1065454;-73
2023/03/25 15:59:13;;;;;;;0.80;0.70;;;;;;;11.18;63.77;99267.98;106239;1267;1070991;-73
2023/03/25 16:04:16;;;;;;;;;;;;;;;10.99;64.79;99267.27;106381;1269;1053939;-72
2023/03/25 16:09:23;;;;;;;0.80;0.80;;;;;;;10.71;65.98;99264.17;106691;1260;1057937;-72
2023/03/25 16:14:22;;;;;;;1.80;1.30;;;;;;;10.54;66.95;99244.20;106819;1260;1075214;-72
2023/03/25 16:19:20;;;;;;;1.90;1.30;;;;;;;10.42;67.70;99225.56;106847;1259;1066887;-72
2023/03/25 16:24:13;;;;;;;1.60;1.30;;;;;;;10.33;68.51;99216.42;106753;1260;1070763;-72
2023/03/25 16:29:17;;;;;;;1.80;1.20;;;;;;;10.28;68.78;99219.73;106794;1260;1016244;-72
2023/03/25 16:34:15;;;;;;;2.20;1.50;;;;;;;10.23;69.35;99225.13;106799;1261;1059415;-72
2023/03/25 16:39:14;;;;;;;3.90;1.40;;;;;;;10.11;69.54;99224.14;106865;1260;1073244;-73
2023/03/25 16:44:08;;;;;;;2.50;1.70;;;;;;;9.98;69.96;99223.00;106824;1260;1065123;-73
2023/03/25 16:49:02;;;;;;;1.50;1.40;;;;;;;9.83;70.29;99241.58;106805;1259;1016706;-72
2023/03/25 16:53:58;;;;;;;1.60;1.50;;;;;;;9.65;70.54;99243.02;106926;1260;1016614;-72
2023/03/25 16:59:05;;;;;;;2.80;1.70;;;;;;;9.47;70.75;99254.13;106804;1259;1058079;-72
2023/03/25 17:04:07;;;;;;;2.50;2.00;;;;;;;9.27;71.08;99257.44;106817;1257;1073219;-73
2023/03/25 17:09:03;;;;;;;2.70;1.70;;;;;;;9.11;71.25;99257.45;106880;1263;1064901;-72
2023/03/25 17:14:08;;;;;;;1.70;1.60;;;;;;;9.01;71.72;99256.25;106840;1257;1073147;-73
2023/03/25 17:19:03;;;;;;;2.50;2.30;;;;;;;8.91;71.98;99261.78;106861;1257;1051394;-72
2023/03/25 17:24:00;;;;;;;3.80;2.30;;;;;;;8.78;71.68;99262.63;106829;1260;1060527;-72
2023/03/25 17:28:57;;;;;;;3.00;2.00;;;;;;;8.65;72.00;99266.23;106841;1257;1072613;-72
2023/03/25 17:33:53;;;;;;;2.00;1.80;;;;;;;8.55;72.23;99275.38;106936;1262;1065592;-72
2023/03/25 17:38:51;;;;;;;2.80;2.30;;;;;;;8.41;72.37;99274.46;106907;1257;1070672;-72
2023/03/25 17:43:55;;;;;;;5.60;2.80;;;;;;;8.32;72.51;99271.30;106874;1260;1050287;-72
2023/03/25 17:48:49;;;;;;;4.30;2.90;;;;;;;8.27;73.00;99265.27;106949;1257;1059205;-72
2023/03/25 17:53:42;;;;;;;4.20;3.00;;;;;;;8.25;73.08;99264.04;106865;1257;1076417;-72
2023/03/25 17:58:35;;;;;;;4.80;3.90;;;;;;;8.18;72.92;99263.52;106857;1262;1016245;-72
2023/03/25 18:03:31;;;;;;;7.50;4.80;;;;;;;8.13;73.35;99267.80;106873;1257;1018056;-72
2023/03/25 18:08:25;;;;;;;6.70;4.90;;;;;;;8.12;73.59;99276.26;106892;1258;1049916;-72
2023/03/25 18:13:20;;;;;;;5.40;4.90;;;;;;;8.08;73.72;99278.15;106758;1257;1016372;-72
2023/03/25 18:18:17;;;;;;;11.00;6.00;;;;;;;8.08;74.20;99282.28;106858;1258;1073103;-72
2023/03/25 18:23:10;;;;;;;7.20;6.10;;;;;;;8.07;74.18;99288.15;106859;1257;1063967;-72
2023/03/25 18:28:03;;;;;;;9.00;6.80;;;;;;;8.12;74.54;99277.11;106829;1257;1018324;-71
2023/03/25 18:32:56;;;;;;;7.90;5.90;;;;;;;8.16;74.49;99275.58;106804;1257;1015865;-72
2023/03/25 18:37:49;;;;;;;9.40;6.80;;;;;;;8.16;74.66;99286.11;106856;1258;1015922;-72
2023/03/25 18:42:42;;;;;;;6.70;5.90;;;;;;;8.18;74.77;99278.52;106871;1257;1016062;-71
2023/03/25 18:47:35;;;;;;;8.50;6.00;;;;;;;8.20;75.03;99279.22;106857;1259;1016322;-71
2023/03/25 18:52:28;;;;;;;8.70;7.20;;;;;;;8.25;75.09;99282.34;106797;1257;1016568;-72
2023/03/25 18:57:24;;;;;;;9.10;6.70;;;;;;;8.24;75.14;99283.89;106854;1259;1016941;-72
2023/03/25 19:02:17;;;;;;;8.90;6.70;;;;;;;8.23;75.32;99281.64;106822;1262;1058851;-72
2023/03/25 19:07:10;;;;;;;8.30;6.50;;;;;;;8.20;75.50;99288.20;106784;1259;1018979;-72
2023/03/25 19:12:03;;;;;;;9.50;6.80;;;;;;;8.16;75.59;99298.88;106868;1258;1017959;-72
2023/03/25 19:16:57;;;;;;;9.70;6.60;;;;;;;8.14;75.81;99305.60;106833;1262;1016406;-72
2023/03/25 19:21:57;;;;;;;8.70;7.00;;;;;;;8.10;75.97;99303.34;106774;1257;1049718;-72
2023/03/25 19:26:50;;;;;;;12.20;7.70;;;;;;;8.10;76.05;99299.02;106943;1257;1016782;-72
2023/03/25 19:31:45;;;;;;;7.60;5.80;;;;;;;8.11;76.06;99291.09;106711;1257;1016449;-72
2023/03/25 19:36:38;;;;;;;6.90;5.30;;;;;;;8.13;75.98;99291.63;106950;1257;1064529;-72
2023/03/25 19:41:33;;;;;;;5.10;4.30;;;;;;;8.19;75.96;99293.89;106854;1258;1016460;-73
2023/03/25 19:46:28;;;;;;;5.60;4.10;;;;;;;8.22;75.89;99288.71;106925;1259;1050640;-72
2023/03/25 19:51:21;;;;;;;6.40;3.70;;;;;;;8.24;75.62;99277.15;106923;1258;1016727;-71
2023/03/25 19:56:13;;;;;;;3.60;3.10;;;;;;;8.27;75.53;99278.90;106856;1257;1016121;-72
2023/03/25 20:01:06;;;;;;;5.70;4.00;;;;;;;8.27;75.60;99275.11;106882;1259;1018224;-72
2023/03/25 20:06:01;;;;;;;6.20;3.60;;;;;;;8.26;75.74;99281.48;106859;1257;1016114;-71
2023/03/25 20:10:55;;;;;;;5.30;4.20;;;;;;;8.24;75.69;99280.44;106848;1261;1050212;-72
2023/03/25 20:15:51;;;;;;;5.70;4.10;;;;;;;8.17;75.69;99278.53;106849;1257;1016234;-72
2023/03/25 20:20:45;;;;;;;4.80;3.60;;;;;;;8.08;75.79;99277.09;106786;1260;1075422;-72
2023/03/25 20:25:38;;;;;;;4.20;3.40;;;;;;;7.93;75.77;99282.39;106865;1257;1016396;-72
2023/03/25 20:30:34;;;;;;;4.60;3.20;;;;;;;7.79;75.90;99284.20;106879;1257;1016487;-72
2023/03/25 20:35:29;;;;;;;4.40;3.00;;;;;;;7.67;76.06;99282.77;106856;1257;1051412;-72
2023/03/25 20:40:22;;;;;;;5.80;2.70;;;;;;;7.53;76.15;99282.68;106776;1259;1058784;-72
2023/03/25 20:45:33;;;;;;;3.10;2.30;;;;;;;7.36;76.15;99281.70;106808;1257;1072989;-72
2023/03/25 20:50:26;;;;;;;3.00;2.60;;;;;;;7.20;76.06;99288.31;106966;1258;1016380;-72
2023/03/25 20:55:19;;;;;;;3.50;3.00;;;;;;;7.05;76.05;99291.13;107006;1257;1016357;-71
2023/03/25 21:00:16;;;;;;;2.90;2.60;;;;;;;6.91;75.84;99289.98;106953;1257;1018054;-72
2023/03/25 21:05:09;;;;;;;3.30;2.60;;;;;;;6.76;76.06;99290.53;106936;1257;1061521;-71
2023/03/25 21:10:02;;;;;;;3.30;2.80;;;;;;;6.67;76.24;99289.91;106923;1262;1016326;-71
2023/03/25 21:14:55;;;;;;;3.00;2.70;;;;;;;6.58;76.12;99287.76;106911;1257;1017378;-72
2023/03/25 21:19:49;;;;;;;3.80;2.60;;;;;;;6.52;76.31;99283.58;107025;1259;1016001;-71
2023/03/25 21:24:42;;;;;;;4.00;2.70;;;;;;;6.46;76.12;99281.80;106962;1261;1019548;-71
2023/03/25 21:29:35;;;;;;;6.30;3.70;;;;;;;6.42;76.31;99277.78;106888;1261;1016073;-72
2023/03/25 21:34:29;;;;;;;3.30;3.00;;;;;;;6.38;76.54;99280.67;106925;1257;1016853;-71
2023/03/25 21:39:22;;;;;;;4.50;3.50;;;;;;;6.33;76.63;99279.42;107045;1257;1018732;-71
2023/03/25 21:44:15;;;;;;;4.30;3.90;;;;;;;6.29;76.82;99278.16;106972;1257;1016361;-72
2023/03/25 21:49:08;;;;;;;7.00;4.10;;;;;;;6.21;76.79;99274.62;106925;1258;1017267;-72
2023/03/25 21:54:01;;;;;;;4.10;3.70;;;;;;;6.10;76.74;99279.48;106950;1258;1016611;-72
2023/03/25 21:58:54;;;;;;;5.40;4.40;;;;;;;5.97;76.55;99271.91;106834;1259;1015926;-72
2023/03/25 22:03:47;;;;;;;8.10;5.90;;;;;;;5.88;76.69;99274.89;106904;1257;1016107;-72
2023/03/25 22:08:41;;;;;;;8.80;7.30;;;;;;;5.80;76.74;99273.73;106852;1257;1016200;-71
2023/03/25 22:13:34;;;;;;;9.30;7.80;;;;;;;5.72;76.88;99275.36;106841;1257;1016524;-72
2023/03/25 22:18:28;;;;;;;12.20;9.20;;;;;;;5.71;77.13;99271.41;106881;1257;1016415;-72
2023/03/25 22:23:21;;;;;;;12.10;10.10;;;;;;;5.68;77.05;99272.91;106947;1257;1016383;-72
2023/03/25 22:28:15;;;;;;;11.90;10.60;;;;;;;5.65;77.03;99272.86;106869;1257;1018269;-72
2023/03/25 22:33:08;;;;;;;14.50;11.30;;;;;;;5.66;77.25;99275.80;107093;1257;1016063;-72
2023/03/25 22:38:01;;;;;;;13.40;11.00;;;;;;;5.72;77.46;99276.92;106895;1257;1016191;-72
2023/03/25 22:42:54;;;;;;;12.70;10.40;;;;;;;5.78;77.69;99276.46;106894;1261;1016410;-72